sensor_id;sensor_type;location;lat;lon;timestamp;P1;durP1;ratioP1;P2;durP2;ratioP2
74959;SDS011;63518;49.572;1.106;2023-05-10T00:00:20;5.80;;;1.17;;
74959;SDS011;63518;49.572;1.106;2023-05-10T00:02:48;6.18;;;1.10;;
74959;SDS011;63518;49.572;1.106;2023-05-10T00:05:15;5.93;;;1.17;;
74959;SDS011;63518;49.572;1.106;2023-05-10T00:07:42;7.93;;;1.38;;
74959;SDS011;63518;49.572;1.106;2023-05-10T00:10:11;3.22;;;0.93;;
74959;SDS011;63518;49.572;1.106;2023-05-10T00:12:38;6.18;;;1.05;;
74959;SDS011;63518;49.572;1.106;2023-05-10T00:15:05;5.30;;;1.30;;
74959;SDS011;63518;49.572;1.106;2023-05-10T00:17:32;6.28;;;1.50;;
74959;SDS011;63518;49.572;1.106;2023-05-10T00:19:59;5.68;;;1.48;;
74959;SDS011;63518;49.572;1.106;2023-05-10T00:22:26;4.00;;;1.10;;
74959;SDS011;63518;49.572;1.106;2023-05-10T00:24:53;6.00;;;1.20;;
74959;SDS011;63518;49.572;1.106;2023-05-10T00:27:20;7.45;;;1.40;;
74959;SDS011;63518;49.572;1.106;2023-05-10T00:29:47;5.70;;;1.30;;
74959;SDS011;63518;49.572;1.106;2023-05-10T00:32:14;5.90;;;1.42;;
74959;SDS011;63518;49.572;1.106;2023-05-10T00:34:40;7.60;;;1.23;;
74959;SDS011;63518;49.572;1.106;2023-05-10T00:37:07;5.25;;;1.35;;
74959;SDS011;63518;49.572;1.106;2023-05-10T00:39:34;6.65;;;0.93;;
74959;SDS011;63518;49.572;1.106;2023-05-10T00:42:01;5.25;;;1.45;;
74959;SDS011;63518;49.572;1.106;2023-05-10T00:44:28;6.65;;;1.42;;
74959;SDS011;63518;49.572;1.106;2023-05-10T00:46:54;6.85;;;1.27;;
74959;SDS011;63518;49.572;1.106;2023-05-10T00:49:21;7.53;;;1.42;;
74959;SDS011;63518;49.572;1.106;2023-05-10T00:51:48;6.00;;;2.08;;
74959;SDS011;63518;49.572;1.106;2023-05-10T00:54:15;3.33;;;1.13;;
74959;SDS011;63518;49.572;1.106;2023-05-10T00:56:42;3.55;;;1.17;;
74959;SDS011;63518;49.572;1.106;2023-05-10T00:59:15;5.63;;;1.50;;
74959;SDS011;63518;49.572;1.106;2023-05-10T01:01:43;4.03;;;1.38;;
74959;SDS011;63518;49.572;1.106;2023-05-10T01:04:12;3.10;;;0.90;;
74959;SDS011;63518;49.572;1.106;2023-05-10T01:06:40;5.88;;;1.08;;
74959;SDS011;63518;49.572;1.106;2023-05-10T01:09:07;5.60;;;1.75;;
74959;SDS011;63518;49.572;1.106;2023-05-10T01:11:34;6.70;;;2.42;;
74959;SDS011;63518;49.572;1.106;2023-05-10T01:14:03;6.47;;;1.65;;
74959;SDS011;63518;49.572;1.106;2023-05-10T01:16:32;5.05;;;1.42;;
74959;SDS011;63518;49.572;1.106;2023-05-10T01:19:04;9.52;;;1.88;;
74959;SDS011;63518;49.572;1.106;2023-05-10T01:21:33;6.45;;;1.60;;
74959;SDS011;63518;49.572;1.106;2023-05-10T01:27:07;6.95;;;1.45;;
74959;SDS011;63518;49.572;1.106;2023-05-10T01:35:43;6.15;;;1.70;;
74959;SDS011;63518;49.572;1.106;2023-05-10T01:41:14;2.20;;;0.73;;
74959;SDS011;63518;49.572;1.106;2023-05-10T01:43:46;3.28;;;0.88;;
74959;SDS011;63518;49.572;1.106;2023-05-10T01:46:36;7.07;;;2.20;;
74959;SDS011;63518;49.572;1.106;2023-05-10T01:49:08;4.65;;;1.33;;
74959;SDS011;63518;49.572;1.106;2023-05-10T01:51:49;7.50;;;1.73;;
74959;SDS011;63518;49.572;1.106;2023-05-10T01:54:21;5.35;;;1.08;;
74959;SDS011;63518;49.572;1.106;2023-05-10T01:56:52;6.13;;;1.92;;
74959;SDS011;63518;49.572;1.106;2023-05-10T01:59:28;6.95;;;1.35;;
74959;SDS011;63518;49.572;1.106;2023-05-10T02:02:02;3.75;;;1.48;;
74959;SDS011;63518;49.572;1.106;2023-05-10T02:04:31;8.10;;;1.98;;
74959;SDS011;63518;49.572;1.106;2023-05-10T02:07:01;6.90;;;2.70;;
74959;SDS011;63518;49.572;1.106;2023-05-10T02:09:28;4.93;;;1.45;;
74959;SDS011;63518;49.572;1.106;2023-05-10T02:11:58;5.75;;;1.80;;
74959;SDS011;63518;49.572;1.106;2023-05-10T02:14:29;5.63;;;1.63;;
74959;SDS011;63518;49.572;1.106;2023-05-10T02:16:58;5.13;;;1.83;;
74959;SDS011;63518;49.572;1.106;2023-05-10T02:19:26;8.32;;;2.75;;
74959;SDS011;63518;49.572;1.106;2023-05-10T02:21:55;5.53;;;1.73;;
74959;SDS011;63518;49.572;1.106;2023-05-10T02:24:23;6.00;;;2.67;;
74959;SDS011;63518;49.572;1.106;2023-05-10T02:26:51;5.90;;;1.77;;
74959;SDS011;63518;49.572;1.106;2023-05-10T02:29:20;8.75;;;2.40;;
74959;SDS011;63518;49.572;1.106;2023-05-10T02:31:54;6.97;;;2.42;;
74959;SDS011;63518;49.572;1.106;2023-05-10T02:34:22;5.95;;;1.60;;
74959;SDS011;63518;49.572;1.106;2023-05-10T02:36:52;9.48;;;3.08;;
74959;SDS011;63518;49.572;1.106;2023-05-10T02:39:20;10.18;;;3.50;;
74959;SDS011;63518;49.572;1.106;2023-05-10T02:41:48;8.55;;;2.47;;
74959;SDS011;63518;49.572;1.106;2023-05-10T02:44:27;7.53;;;2.60;;
74959;SDS011;63518;49.572;1.106;2023-05-10T02:47:03;7.75;;;2.75;;
74959;SDS011;63518;49.572;1.106;2023-05-10T02:49:30;8.13;;;2.58;;
74959;SDS011;63518;49.572;1.106;2023-05-10T02:51:58;6.63;;;2.53;;
74959;SDS011;63518;49.572;1.106;2023-05-10T02:54:31;8.82;;;2.65;;
74959;SDS011;63518;49.572;1.106;2023-05-10T02:57:02;5.65;;;2.25;;
74959;SDS011;63518;49.572;1.106;2023-05-10T02:59:32;6.18;;;2.47;;
74959;SDS011;63518;49.572;1.106;2023-05-10T03:01:59;6.90;;;2.45;;
74959;SDS011;63518;49.572;1.106;2023-05-10T03:04:39;6.32;;;2.03;;
74959;SDS011;63518;49.572;1.106;2023-05-10T03:07:07;6.57;;;2.70;;
74959;SDS011;63518;49.572;1.106;2023-05-10T03:09:34;6.45;;;2.38;;
74959;SDS011;63518;49.572;1.106;2023-05-10T03:17:06;6.13;;;1.98;;
74959;SDS011;63518;49.572;1.106;2023-05-10T03:22:14;7.25;;;3.00;;
74959;SDS011;63518;49.572;1.106;2023-05-10T03:25:07;7.53;;;3.08;;
74959;SDS011;63518;49.572;1.106;2023-05-10T03:27:39;8.05;;;3.40;;
74959;SDS011;63518;49.572;1.106;2023-05-10T03:30:12;7.88;;;3.05;;
74959;SDS011;63518;49.572;1.106;2023-05-10T03:32:40;7.80;;;3.13;;
74959;SDS011;63518;49.572;1.106;2023-05-10T03:35:07;12.20;;;2.65;;
74959;SDS011;63518;49.572;1.106;2023-05-10T03:37:38;6.10;;;2.58;;
74959;SDS011;63518;49.572;1.106;2023-05-10T03:40:06;7.85;;;2.65;;
74959;SDS011;63518;49.572;1.106;2023-05-10T03:42:33;7.82;;;2.83;;
74959;SDS011;63518;49.572;1.106;2023-05-10T03:45:00;5.28;;;1.98;;
74959;SDS011;63518;49.572;1.106;2023-05-10T03:47:27;7.63;;;1.83;;
74959;SDS011;63518;49.572;1.106;2023-05-10T03:49:53;7.10;;;1.63;;
74959;SDS011;63518;49.572;1.106;2023-05-10T03:52:20;5.30;;;1.50;;
74959;SDS011;63518;49.572;1.106;2023-05-10T03:54:47;6.10;;;1.90;;
74959;SDS011;63518;49.572;1.106;2023-05-10T03:57:14;4.68;;;1.35;;
74959;SDS011;63518;49.572;1.106;2023-05-10T03:59:41;6.20;;;1.40;;
74959;SDS011;63518;49.572;1.106;2023-05-10T04:02:07;4.38;;;1.00;;
74959;SDS011;63518;49.572;1.106;2023-05-10T04:04:34;6.00;;;1.65;;
74959;SDS011;63518;49.572;1.106;2023-05-10T04:07:01;9.02;;;2.60;;
74959;SDS011;63518;49.572;1.106;2023-05-10T04:09:27;8.55;;;2.75;;
74959;SDS011;63518;49.572;1.106;2023-05-10T04:11:54;11.07;;;4.35;;
74959;SDS011;63518;49.572;1.106;2023-05-10T04:14:21;15.02;;;4.70;;
74959;SDS011;63518;49.572;1.106;2023-05-10T04:16:48;9.82;;;3.20;;
74959;SDS011;63518;49.572;1.106;2023-05-10T04:19:14;16.45;;;5.20;;
74959;SDS011;63518;49.572;1.106;2023-05-10T04:21:41;20.02;;;7.28;;
74959;SDS011;63518;49.572;1.106;2023-05-10T04:24:08;21.17;;;7.70;;
74959;SDS011;63518;49.572;1.106;2023-05-10T04:26:35;24.35;;;7.38;;
74959;SDS011;63518;49.572;1.106;2023-05-10T04:29:10;20.90;;;6.88;;
74959;SDS011;63518;49.572;1.106;2023-05-10T04:31:37;15.52;;;5.07;;
74959;SDS011;63518;49.572;1.106;2023-05-10T04:34:04;16.02;;;5.80;;
74959;SDS011;63518;49.572;1.106;2023-05-10T04:36:31;12.05;;;4.13;;
74959;SDS011;63518;49.572;1.106;2023-05-10T04:39:04;23.95;;;7.97;;
74959;SDS011;63518;49.572;1.106;2023-05-10T04:41:31;22.40;;;8.30;;
74959;SDS011;63518;49.572;1.106;2023-05-10T04:43:58;14.65;;;5.47;;
74959;SDS011;63518;49.572;1.106;2023-05-10T04:46:24;19.40;;;6.90;;
74959;SDS011;63518;49.572;1.106;2023-05-10T04:48:51;22.00;;;7.35;;
74959;SDS011;63518;49.572;1.106;2023-05-10T04:51:18;21.27;;;6.22;;
74959;SDS011;63518;49.572;1.106;2023-05-10T04:53:45;28.13;;;9.18;;
74959;SDS011;63518;49.572;1.106;2023-05-10T04:56:30;20.33;;;7.65;;
74959;SDS011;63518;49.572;1.106;2023-05-10T04:58:57;21.08;;;5.93;;
74959;SDS011;63518;49.572;1.106;2023-05-10T05:01:24;18.80;;;7.15;;
74959;SDS011;63518;49.572;1.106;2023-05-10T05:03:50;21.08;;;6.45;;
74959;SDS011;63518;49.572;1.106;2023-05-10T05:06:19;16.60;;;5.22;;
74959;SDS011;63518;49.572;1.106;2023-05-10T05:08:47;28.52;;;8.75;;
74959;SDS011;63518;49.572;1.106;2023-05-10T05:11:16;23.70;;;7.18;;
74959;SDS011;63518;49.572;1.106;2023-05-10T05:13:44;17.48;;;6.22;;
74959;SDS011;63518;49.572;1.106;2023-05-10T05:16:11;17.38;;;6.07;;
74959;SDS011;63518;49.572;1.106;2023-05-10T05:18:38;22.88;;;7.60;;
74959;SDS011;63518;49.572;1.106;2023-05-10T05:21:17;16.33;;;5.43;;
74959;SDS011;63518;49.572;1.106;2023-05-10T05:23:44;26.42;;;9.40;;
74959;SDS011;63518;49.572;1.106;2023-05-10T05:26:11;22.08;;;5.43;;
74959;SDS011;63518;49.572;1.106;2023-05-10T05:28:38;25.27;;;7.05;;
74959;SDS011;63518;49.572;1.106;2023-05-10T05:31:05;17.00;;;4.47;;
74959;SDS011;63518;49.572;1.106;2023-05-10T05:33:34;9.43;;;3.65;;
74959;SDS011;63518;49.572;1.106;2023-05-10T05:36:01;17.15;;;5.10;;
74959;SDS011;63518;49.572;1.106;2023-05-10T05:38:29;18.52;;;4.90;;
74959;SDS011;63518;49.572;1.106;2023-05-10T05:40:56;15.65;;;4.43;;
74959;SDS011;63518;49.572;1.106;2023-05-10T05:43:22;15.18;;;5.80;;
74959;SDS011;63518;49.572;1.106;2023-05-10T05:45:49;19.58;;;5.95;;
74959;SDS011;63518;49.572;1.106;2023-05-10T05:48:18;17.27;;;5.18;;
74959;SDS011;63518;49.572;1.106;2023-05-10T05:50:45;19.13;;;6.93;;
74959;SDS011;63518;49.572;1.106;2023-05-10T05:53:12;17.20;;;5.63;;
74959;SDS011;63518;49.572;1.106;2023-05-10T05:55:39;10.38;;;2.90;;
74959;SDS011;63518;49.572;1.106;2023-05-10T05:58:05;19.67;;;4.72;;
74959;SDS011;63518;49.572;1.106;2023-05-10T06:00:32;19.83;;;6.97;;
74959;SDS011;63518;49.572;1.106;2023-05-10T06:02:59;10.40;;;2.88;;
74959;SDS011;63518;49.572;1.106;2023-05-10T06:05:26;21.30;;;5.68;;
74959;SDS011;63518;49.572;1.106;2023-05-10T06:07:53;14.68;;;5.47;;
74959;SDS011;63518;49.572;1.106;2023-05-10T06:10:19;21.73;;;6.07;;
74959;SDS011;63518;49.572;1.106;2023-05-10T06:12:46;10.30;;;3.45;;
74959;SDS011;63518;49.572;1.106;2023-05-10T06:15:13;12.68;;;4.10;;
74959;SDS011;63518;49.572;1.106;2023-05-10T06:17:40;12.32;;;2.83;;
74959;SDS011;63518;49.572;1.106;2023-05-10T06:20:07;9.00;;;2.83;;
74959;SDS011;63518;49.572;1.106;2023-05-10T06:22:34;13.43;;;3.85;;
74959;SDS011;63518;49.572;1.106;2023-05-10T06:25:01;5.45;;;1.83;;
74959;SDS011;63518;49.572;1.106;2023-05-10T06:27:28;11.70;;;3.80;;
74959;SDS011;63518;49.572;1.106;2023-05-10T06:29:55;13.73;;;3.83;;
74959;SDS011;63518;49.572;1.106;2023-05-10T06:32:38;10.20;;;2.80;;
74959;SDS011;63518;49.572;1.106;2023-05-10T06:35:04;8.55;;;2.33;;
74959;SDS011;63518;49.572;1.106;2023-05-10T06:37:32;9.43;;;2.15;;
74959;SDS011;63518;49.572;1.106;2023-05-10T06:39:58;7.63;;;2.35;;
74959;SDS011;63518;49.572;1.106;2023-05-10T06:42:25;9.48;;;2.80;;
74959;SDS011;63518;49.572;1.106;2023-05-10T06:44:53;8.95;;;2.40;;
74959;SDS011;63518;49.572;1.106;2023-05-10T06:47:20;18.55;;;4.03;;
74959;SDS011;63518;49.572;1.106;2023-05-10T06:49:46;12.75;;;3.50;;
74959;SDS011;63518;49.572;1.106;2023-05-10T06:52:13;9.52;;;3.13;;
74959;SDS011;63518;49.572;1.106;2023-05-10T06:54:40;13.43;;;4.28;;
74959;SDS011;63518;49.572;1.106;2023-05-10T06:57:07;19.27;;;3.92;;
74959;SDS011;63518;49.572;1.106;2023-05-10T06:59:45;15.73;;;4.28;;
74959;SDS011;63518;49.572;1.106;2023-05-10T07:02:11;9.10;;;3.03;;
74959;SDS011;63518;49.572;1.106;2023-05-10T07:04:38;11.38;;;3.67;;
74959;SDS011;63518;49.572;1.106;2023-05-10T07:07:06;11.90;;;3.58;;
74959;SDS011;63518;49.572;1.106;2023-05-10T07:09:32;19.65;;;4.00;;
74959;SDS011;63518;49.572;1.106;2023-05-10T07:11:59;13.15;;;3.25;;
74959;SDS011;63518;49.572;1.106;2023-05-10T07:14:28;13.98;;;4.10;;
74959;SDS011;63518;49.572;1.106;2023-05-10T07:16:54;11.20;;;3.05;;
74959;SDS011;63518;49.572;1.106;2023-05-10T07:19:21;14.25;;;3.60;;
74959;SDS011;63518;49.572;1.106;2023-05-10T07:21:48;13.55;;;3.25;;
74959;SDS011;63518;49.572;1.106;2023-05-10T07:24:15;16.42;;;4.80;;
74959;SDS011;63518;49.572;1.106;2023-05-10T07:26:42;17.13;;;4.35;;
74959;SDS011;63518;49.572;1.106;2023-05-10T07:29:09;14.05;;;4.25;;
74959;SDS011;63518;49.572;1.106;2023-05-10T07:31:36;13.40;;;3.85;;
74959;SDS011;63518;49.572;1.106;2023-05-10T07:34:03;10.93;;;2.55;;
74959;SDS011;63518;49.572;1.106;2023-05-10T07:36:29;14.27;;;3.13;;
74959;SDS011;63518;49.572;1.106;2023-05-10T07:38:57;18.55;;;3.70;;
74959;SDS011;63518;49.572;1.106;2023-05-10T07:41:24;12.48;;;3.38;;
74959;SDS011;63518;49.572;1.106;2023-05-10T07:43:50;12.93;;;3.47;;
74959;SDS011;63518;49.572;1.106;2023-05-10T07:46:17;16.25;;;4.15;;
74959;SDS011;63518;49.572;1.106;2023-05-10T07:48:45;14.80;;;3.58;;
74959;SDS011;63518;49.572;1.106;2023-05-10T07:51:12;15.07;;;3.95;;
74959;SDS011;63518;49.572;1.106;2023-05-10T07:53:39;13.43;;;3.25;;
74959;SDS011;63518;49.572;1.106;2023-05-10T07:56:20;12.95;;;3.72;;
74959;SDS011;63518;49.572;1.106;2023-05-10T07:58:47;17.30;;;4.38;;
74959;SDS011;63518;49.572;1.106;2023-05-10T08:01:14;13.35;;;3.58;;
74959;SDS011;63518;49.572;1.106;2023-05-10T08:03:40;16.95;;;4.95;;
74959;SDS011;63518;49.572;1.106;2023-05-10T08:06:07;14.60;;;4.03;;
74959;SDS011;63518;49.572;1.106;2023-05-10T08:08:34;9.40;;;3.53;;
74959;SDS011;63518;49.572;1.106;2023-05-10T08:11:01;17.13;;;4.45;;
74959;SDS011;63518;49.572;1.106;2023-05-10T08:13:28;10.13;;;2.80;;
74959;SDS011;63518;49.572;1.106;2023-05-10T08:15:55;11.32;;;3.35;;
74959;SDS011;63518;49.572;1.106;2023-05-10T08:18:22;17.58;;;4.70;;
74959;SDS011;63518;49.572;1.106;2023-05-10T08:20:49;8.93;;;2.90;;
74959;SDS011;63518;49.572;1.106;2023-05-10T08:23:15;13.18;;;4.35;;
74959;SDS011;63518;49.572;1.106;2023-05-10T08:25:42;18.48;;;5.82;;
74959;SDS011;63518;49.572;1.106;2023-05-10T08:28:09;15.45;;;5.32;;
74959;SDS011;63518;49.572;1.106;2023-05-10T08:30:37;16.38;;;4.03;;
74959;SDS011;63518;49.572;1.106;2023-05-10T08:33:04;13.70;;;4.28;;
74959;SDS011;63518;49.572;1.106;2023-05-10T08:35:30;16.52;;;4.80;;
74959;SDS011;63518;49.572;1.106;2023-05-10T08:37:58;17.10;;;3.92;;
74959;SDS011;63518;49.572;1.106;2023-05-10T08:40:24;16.00;;;3.30;;
74959;SDS011;63518;49.572;1.106;2023-05-10T08:43:02;17.17;;;3.17;;
74959;SDS011;63518;49.572;1.106;2023-05-10T08:45:33;8.45;;;2.83;;
74959;SDS011;63518;49.572;1.106;2023-05-10T08:48:05;13.90;;;3.38;;
74959;SDS011;63518;49.572;1.106;2023-05-10T08:50:33;13.35;;;3.40;;
74959;SDS011;63518;49.572;1.106;2023-05-10T08:53:09;8.63;;;2.42;;
74959;SDS011;63518;49.572;1.106;2023-05-10T08:55:37;12.77;;;3.78;;
74959;SDS011;63518;49.572;1.106;2023-05-10T08:58:05;10.75;;;2.45;;
74959;SDS011;63518;49.572;1.106;2023-05-10T09:00:33;7.32;;;1.20;;
74959;SDS011;63518;49.572;1.106;2023-05-10T09:03:01;11.90;;;2.70;;
74959;SDS011;63518;49.572;1.106;2023-05-10T09:05:29;8.32;;;1.45;;
74959;SDS011;63518;49.572;1.106;2023-05-10T09:07:56;9.27;;;1.92;;
74959;SDS011;63518;49.572;1.106;2023-05-10T09:10:23;12.73;;;2.45;;
74959;SDS011;63518;49.572;1.106;2023-05-10T09:15:23;9.32;;;1.98;;
74959;SDS011;63518;49.572;1.106;2023-05-10T09:17:50;12.38;;;2.22;;
74959;SDS011;63518;49.572;1.106;2023-05-10T09:20:18;15.60;;;2.83;;
74959;SDS011;63518;49.572;1.106;2023-05-10T09:22:45;7.03;;;2.10;;
74959;SDS011;63518;49.572;1.106;2023-05-10T09:25:13;6.00;;;1.45;;
74959;SDS011;63518;49.572;1.106;2023-05-10T09:27:45;12.60;;;2.70;;
74959;SDS011;63518;49.572;1.106;2023-05-10T09:30:17;6.72;;;1.50;;
74959;SDS011;63518;49.572;1.106;2023-05-10T09:35:17;11.77;;;2.90;;
74959;SDS011;63518;49.572;1.106;2023-05-10T09:37:48;15.15;;;2.38;;
74959;SDS011;63518;49.572;1.106;2023-05-10T09:42:55;17.35;;;3.75;;
74959;SDS011;63518;49.572;1.106;2023-05-10T09:45:27;6.65;;;1.63;;
74959;SDS011;63518;49.572;1.106;2023-05-10T09:47:57;16.70;;;3.63;;
74959;SDS011;63518;49.572;1.106;2023-05-10T09:50:25;11.52;;;3.03;;
74959;SDS011;63518;49.572;1.106;2023-05-10T09:52:59;9.55;;;2.05;;
74959;SDS011;63518;49.572;1.106;2023-05-10T09:58:05;13.32;;;3.05;;
74959;SDS011;63518;49.572;1.106;2023-05-10T10:00:37;11.98;;;2.90;;
74959;SDS011;63518;49.572;1.106;2023-05-10T10:03:14;9.32;;;1.92;;
74959;SDS011;63518;49.572;1.106;2023-05-10T10:05:42;13.75;;;2.75;;
74959;SDS011;63518;49.572;1.106;2023-05-10T10:08:10;18.42;;;2.78;;
74959;SDS011;63518;49.572;1.106;2023-05-10T10:10:38;14.02;;;3.40;;
74959;SDS011;63518;49.572;1.106;2023-05-10T10:13:08;9.55;;;3.15;;
74959;SDS011;63518;49.572;1.106;2023-05-10T10:15:35;6.75;;;1.85;;
74959;SDS011;63518;49.572;1.106;2023-05-10T10:18:02;15.20;;;2.88;;
74959;SDS011;63518;49.572;1.106;2023-05-10T10:20:30;10.57;;;2.35;;
74959;SDS011;63518;49.572;1.106;2023-05-10T10:22:58;13.85;;;2.35;;
74959;SDS011;63518;49.572;1.106;2023-05-10T10:25:25;8.35;;;1.80;;
74959;SDS011;63518;49.572;1.106;2023-05-10T10:35:42;8.93;;;2.00;;
74959;SDS011;63518;49.572;1.106;2023-05-10T10:38:20;10.93;;;1.52;;
74959;SDS011;63518;49.572;1.106;2023-05-10T10:40:56;11.25;;;2.25;;
74959;SDS011;63518;49.572;1.106;2023-05-10T10:43:32;9.55;;;1.75;;
74959;SDS011;63518;49.572;1.106;2023-05-10T10:51:16;12.30;;;2.00;;
74959;SDS011;63518;49.572;1.106;2023-05-10T10:53:43;11.18;;;2.20;;
74959;SDS011;63518;49.572;1.106;2023-05-10T10:56:18;8.75;;;1.67;;
74959;SDS011;63518;49.572;1.106;2023-05-10T10:58:51;8.98;;;1.73;;
74959;SDS011;63518;49.572;1.106;2023-05-10T11:01:19;6.18;;;1.60;;
74959;SDS011;63518;49.572;1.106;2023-05-10T11:06:36;10.25;;;1.90;;
74959;SDS011;63518;49.572;1.106;2023-05-10T11:09:10;8.13;;;1.52;;
74959;SDS011;63518;49.572;1.106;2023-05-10T11:11:51;11.05;;;2.40;;
74959;SDS011;63518;49.572;1.106;2023-05-10T11:14:21;8.85;;;1.45;;
74959;SDS011;63518;49.572;1.106;2023-05-10T11:16:49;9.35;;;1.75;;
74959;SDS011;63518;49.572;1.106;2023-05-10T11:19:17;9.68;;;1.80;;
74959;SDS011;63518;49.572;1.106;2023-05-10T11:24:32;6.63;;;1.38;;
74959;SDS011;63518;49.572;1.106;2023-05-10T11:27:00;10.52;;;1.65;;
74959;SDS011;63518;49.572;1.106;2023-05-10T11:29:27;6.70;;;1.48;;
74959;SDS011;63518;49.572;1.106;2023-05-10T11:31:58;10.00;;;2.15;;
74959;SDS011;63518;49.572;1.106;2023-05-10T11:34:26;4.13;;;0.93;;
74959;SDS011;63518;49.572;1.106;2023-05-10T11:37:04;9.40;;;2.42;;
74959;SDS011;63518;49.572;1.106;2023-05-10T11:39:45;12.98;;;2.20;;
74959;SDS011;63518;49.572;1.106;2023-05-10T11:42:14;8.05;;;2.08;;
74959;SDS011;63518;49.572;1.106;2023-05-10T11:44:41;10.93;;;1.80;;
74959;SDS011;63518;49.572;1.106;2023-05-10T11:47:09;7.70;;;2.08;;
74959;SDS011;63518;49.572;1.106;2023-05-10T11:49:38;10.48;;;2.03;;
74959;SDS011;63518;49.572;1.106;2023-05-10T11:52:08;10.02;;;2.10;;
74959;SDS011;63518;49.572;1.106;2023-05-10T11:54:51;10.27;;;1.90;;
74959;SDS011;63518;49.572;1.106;2023-05-10T11:57:19;9.68;;;1.98;;
74959;SDS011;63518;49.572;1.106;2023-05-10T11:59:47;8.20;;;1.60;;
74959;SDS011;63518;49.572;1.106;2023-05-10T12:02:13;8.32;;;1.92;;
74959;SDS011;63518;49.572;1.106;2023-05-10T12:04:41;5.80;;;1.15;;
74959;SDS011;63518;49.572;1.106;2023-05-10T12:07:08;8.65;;;1.58;;
74959;SDS011;63518;49.572;1.106;2023-05-10T12:09:35;10.73;;;1.95;;
74959;SDS011;63518;49.572;1.106;2023-05-10T12:12:09;8.70;;;1.90;;
74959;SDS011;63518;49.572;1.106;2023-05-10T12:14:36;8.02;;;2.13;;
74959;SDS011;63518;49.572;1.106;2023-05-10T12:17:03;9.20;;;1.73;;
74959;SDS011;63518;49.572;1.106;2023-05-10T12:19:39;8.65;;;1.67;;
74959;SDS011;63518;49.572;1.106;2023-05-10T12:22:05;11.23;;;1.98;;
74959;SDS011;63518;49.572;1.106;2023-05-10T12:24:36;9.63;;;1.60;;
74959;SDS011;63518;49.572;1.106;2023-05-10T12:27:05;8.10;;;2.03;;
74959;SDS011;63518;49.572;1.106;2023-05-10T12:32:01;10.82;;;1.60;;
74959;SDS011;63518;49.572;1.106;2023-05-10T12:34:32;12.35;;;2.47;;
74959;SDS011;63518;49.572;1.106;2023-05-10T12:37:06;9.73;;;1.90;;
74959;SDS011;63518;49.572;1.106;2023-05-10T12:42:12;8.02;;;1.40;;
74959;SDS011;63518;49.572;1.106;2023-05-10T12:44:39;6.47;;;1.20;;
74959;SDS011;63518;49.572;1.106;2023-05-10T12:47:06;7.63;;;1.40;;
74959;SDS011;63518;49.572;1.106;2023-05-10T12:49:33;7.70;;;1.40;;
74959;SDS011;63518;49.572;1.106;2023-05-10T12:52:03;9.40;;;1.83;;
74959;SDS011;63518;49.572;1.106;2023-05-10T12:54:29;9.98;;;1.50;;
74959;SDS011;63518;49.572;1.106;2023-05-10T12:56:56;9.60;;;1.88;;
74959;SDS011;63518;49.572;1.106;2023-05-10T12:59:23;7.88;;;1.85;;
74959;SDS011;63518;49.572;1.106;2023-05-10T13:01:50;6.95;;;1.83;;
74959;SDS011;63518;49.572;1.106;2023-05-10T13:04:16;8.85;;;1.42;;
74959;SDS011;63518;49.572;1.106;2023-05-10T13:06:43;10.15;;;2.35;;
74959;SDS011;63518;49.572;1.106;2023-05-10T13:09:10;8.50;;;1.50;;
74959;SDS011;63518;49.572;1.106;2023-05-10T13:11:37;7.18;;;1.63;;
74959;SDS011;63518;49.572;1.106;2023-05-10T13:14:06;7.72;;;1.83;;
74959;SDS011;63518;49.572;1.106;2023-05-10T13:16:33;10.02;;;2.00;;
74959;SDS011;63518;49.572;1.106;2023-05-10T13:19:00;8.93;;;1.98;;
74959;SDS011;63518;49.572;1.106;2023-05-10T13:21:26;8.45;;;1.70;;
74959;SDS011;63518;49.572;1.106;2023-05-10T13:23:55;9.25;;;1.80;;
74959;SDS011;63518;49.572;1.106;2023-05-10T13:26:22;8.68;;;1.90;;
74959;SDS011;63518;49.572;1.106;2023-05-10T13:28:49;11.23;;;2.17;;
74959;SDS011;63518;49.572;1.106;2023-05-10T13:31:17;10.18;;;2.00;;
74959;SDS011;63518;49.572;1.106;2023-05-10T13:33:44;10.05;;;2.00;;
74959;SDS011;63518;49.572;1.106;2023-05-10T13:36:11;9.70;;;1.98;;
74959;SDS011;63518;49.572;1.106;2023-05-10T13:38:38;8.68;;;2.20;;
74959;SDS011;63518;49.572;1.106;2023-05-10T13:41:05;7.13;;;1.70;;
74959;SDS011;63518;49.572;1.106;2023-05-10T13:43:32;8.55;;;1.77;;
74959;SDS011;63518;49.572;1.106;2023-05-10T13:45:58;7.05;;;1.83;;
74959;SDS011;63518;49.572;1.106;2023-05-10T13:48:26;6.72;;;1.60;;
74959;SDS011;63518;49.572;1.106;2023-05-10T13:50:53;6.88;;;1.40;;
74959;SDS011;63518;49.572;1.106;2023-05-10T13:53:20;8.02;;;1.63;;
74959;SDS011;63518;49.572;1.106;2023-05-10T13:55:50;8.52;;;1.80;;
74959;SDS011;63518;49.572;1.106;2023-05-10T13:58:16;6.63;;;1.70;;
74959;SDS011;63518;49.572;1.106;2023-05-10T14:00:43;7.38;;;1.45;;
74959;SDS011;63518;49.572;1.106;2023-05-10T14:03:10;9.40;;;1.75;;
74959;SDS011;63518;49.572;1.106;2023-05-10T14:05:37;7.85;;;1.65;;
74959;SDS011;63518;49.572;1.106;2023-05-10T14:08:15;6.93;;;1.40;;
74959;SDS011;63518;49.572;1.106;2023-05-10T14:10:44;8.77;;;1.70;;
74959;SDS011;63518;49.572;1.106;2023-05-10T14:13:11;9.50;;;1.65;;
74959;SDS011;63518;49.572;1.106;2023-05-10T14:15:39;9.27;;;1.67;;
74959;SDS011;63518;49.572;1.106;2023-05-10T14:18:06;7.15;;;1.60;;
74959;SDS011;63518;49.572;1.106;2023-05-10T14:20:33;7.70;;;1.70;;
74959;SDS011;63518;49.572;1.106;2023-05-10T14:23:00;8.77;;;1.58;;
74959;SDS011;63518;49.572;1.106;2023-05-10T14:25:28;8.55;;;1.67;;
74959;SDS011;63518;49.572;1.106;2023-05-10T14:27:55;8.23;;;1.60;;
74959;SDS011;63518;49.572;1.106;2023-05-10T14:30:22;8.57;;;1.70;;
74959;SDS011;63518;49.572;1.106;2023-05-10T14:32:49;9.05;;;1.70;;
74959;SDS011;63518;49.572;1.106;2023-05-10T14:35:24;9.00;;;1.80;;
74959;SDS011;63518;49.572;1.106;2023-05-10T14:37:51;7.13;;;1.40;;
74959;SDS011;63518;49.572;1.106;2023-05-10T14:40:18;7.95;;;1.30;;
74959;SDS011;63518;49.572;1.106;2023-05-10T14:42:45;7.57;;;2.00;;
74959;SDS011;63518;49.572;1.106;2023-05-10T14:45:12;8.55;;;1.67;;
74959;SDS011;63518;49.572;1.106;2023-05-10T14:47:39;8.00;;;1.52;;
74959;SDS011;63518;49.572;1.106;2023-05-10T14:50:07;6.82;;;1.50;;
74959;SDS011;63518;49.572;1.106;2023-05-10T14:52:34;6.47;;;1.60;;
74959;SDS011;63518;49.572;1.106;2023-05-10T14:55:01;5.57;;;1.30;;
74959;SDS011;63518;49.572;1.106;2023-05-10T14:57:28;6.70;;;1.25;;
74959;SDS011;63518;49.572;1.106;2023-05-10T14:59:56;7.15;;;1.33;;
74959;SDS011;63518;49.572;1.106;2023-05-10T15:02:25;6.20;;;1.40;;
74959;SDS011;63518;49.572;1.106;2023-05-10T15:04:53;6.47;;;1.58;;
74959;SDS011;63518;49.572;1.106;2023-05-10T15:07:20;6.07;;;1.30;;
74959;SDS011;63518;49.572;1.106;2023-05-10T15:09:46;6.97;;;1.38;;
74959;SDS011;63518;49.572;1.106;2023-05-10T15:12:13;7.93;;;1.60;;
74959;SDS011;63518;49.572;1.106;2023-05-10T15:14:40;6.78;;;1.60;;
74959;SDS011;63518;49.572;1.106;2023-05-10T15:17:06;7.95;;;1.63;;
74959;SDS011;63518;49.572;1.106;2023-05-10T15:19:34;8.20;;;1.48;;
74959;SDS011;63518;49.572;1.106;2023-05-10T15:22:01;8.23;;;1.60;;
74959;SDS011;63518;49.572;1.106;2023-05-10T15:24:28;7.43;;;1.50;;
74959;SDS011;63518;49.572;1.106;2023-05-10T15:26:55;7.60;;;1.40;;
74959;SDS011;63518;49.572;1.106;2023-05-10T15:29:21;7.65;;;1.55;;
74959;SDS011;63518;49.572;1.106;2023-05-10T15:31:49;9.02;;;2.13;;
74959;SDS011;63518;49.572;1.106;2023-05-10T15:34:16;8.03;;;1.70;;
74959;SDS011;63518;49.572;1.106;2023-05-10T15:36:44;6.50;;;1.50;;
74959;SDS011;63518;49.572;1.106;2023-05-10T15:39:11;7.20;;;1.10;;
74959;SDS011;63518;49.572;1.106;2023-05-10T15:41:38;7.93;;;1.48;;
74959;SDS011;63518;49.572;1.106;2023-05-10T15:44:05;6.13;;;1.38;;